sensor_id;sensor_type;location;lat;lon;timestamp;P1;durP1;ratioP1;P2;durP2;ratioP2
67442;SDS011;54311;51.726;5.154;2023-07-31T00:00:00;39.72;;;13.82;;
67442;SDS011;54311;51.726;5.154;2023-07-31T00:02:25;34.17;;;13.52;;
67442;SDS011;54311;51.726;5.154;2023-07-31T00:04:50;33.75;;;13.52;;
67442;SDS011;54311;51.726;5.154;2023-07-31T00:07:16;36.90;;;13.40;;
67442;SDS011;54311;51.726;5.154;2023-07-31T00:09:41;38.20;;;14.30;;
67442;SDS011;54311;51.726;5.154;2023-07-31T00:12:06;44.78;;;14.43;;
67442;SDS011;54311;51.726;5.154;2023-07-31T00:14:32;32.17;;;12.40;;
67442;SDS011;54311;51.726;5.154;2023-07-31T00:16:58;30.42;;;13.23;;
67442;SDS011;54311;51.726;5.154;2023-07-31T00:19:23;38.72;;;12.05;;
67442;SDS011;54311;51.726;5.154;2023-07-31T00:21:48;34.40;;;13.10;;
67442;SDS011;54311;51.726;5.154;2023-07-31T00:24:14;30.30;;;11.05;;
67442;SDS011;54311;51.726;5.154;2023-07-31T00:26:39;31.15;;;12.93;;
67442;SDS011;54311;51.726;5.154;2023-07-31T00:29:04;35.15;;;11.60;;
67442;SDS011;54311;51.726;5.154;2023-07-31T00:31:30;35.80;;;10.52;;
67442;SDS011;54311;51.726;5.154;2023-07-31T00:33:55;31.90;;;10.88;;
67442;SDS011;54311;51.726;5.154;2023-07-31T00:36:20;33.55;;;11.45;;
67442;SDS011;54311;51.726;5.154;2023-07-31T00:38:46;28.65;;;10.77;;
67442;SDS011;54311;51.726;5.154;2023-07-31T00:41:11;29.30;;;11.02;;
67442;SDS011;54311;51.726;5.154;2023-07-31T00:43:37;22.85;;;10.88;;
67442;SDS011;54311;51.726;5.154;2023-07-31T00:46:02;26.15;;;11.05;;
67442;SDS011;54311;51.726;5.154;2023-07-31T00:48:27;23.75;;;10.52;;
67442;SDS011;54311;51.726;5.154;2023-07-31T00:50:53;26.17;;;10.10;;
67442;SDS011;54311;51.726;5.154;2023-07-31T00:53:18;33.88;;;11.15;;
67442;SDS011;54311;51.726;5.154;2023-07-31T00:55:44;26.58;;;10.70;;
67442;SDS011;54311;51.726;5.154;2023-07-31T00:58:09;27.67;;;10.57;;
67442;SDS011;54311;51.726;5.154;2023-07-31T01:00:35;25.83;;;10.82;;
67442;SDS011;54311;51.726;5.154;2023-07-31T01:03:00;25.00;;;9.77;;
67442;SDS011;54311;51.726;5.154;2023-07-31T01:08:22;25.58;;;10.63;;
67442;SDS011;54311;51.726;5.154;2023-07-31T01:10:57;32.30;;;10.45;;
67442;SDS011;54311;51.726;5.154;2023-07-31T01:13:27;33.00;;;10.25;;
67442;SDS011;54311;51.726;5.154;2023-07-31T01:15:53;28.67;;;9.95;;
67442;SDS011;54311;51.726;5.154;2023-07-31T01:18:18;28.48;;;11.32;;
67442;SDS011;54311;51.726;5.154;2023-07-31T01:20:44;23.98;;;9.93;;
67442;SDS011;54311;51.726;5.154;2023-07-31T01:26:24;23.67;;;9.82;;
67442;SDS011;54311;51.726;5.154;2023-07-31T01:29:10;16.27;;;8.82;;
67442;SDS011;54311;51.726;5.154;2023-07-31T01:31:43;29.10;;;9.70;;
67442;SDS011;54311;51.726;5.154;2023-07-31T01:34:10;29.52;;;10.30;;
67442;SDS011;54311;51.726;5.154;2023-07-31T01:36:36;24.00;;;9.13;;
67442;SDS011;54311;51.726;5.154;2023-07-31T01:39:02;18.90;;;8.85;;
67442;SDS011;54311;51.726;5.154;2023-07-31T01:41:28;23.70;;;8.77;;
67442;SDS011;54311;51.726;5.154;2023-07-31T01:43:54;16.77;;;8.48;;
67442;SDS011;54311;51.726;5.154;2023-07-31T01:46:19;24.15;;;8.85;;
67442;SDS011;54311;51.726;5.154;2023-07-31T01:48:45;26.38;;;9.35;;
67442;SDS011;54311;51.726;5.154;2023-07-31T01:51:11;26.00;;;9.82;;
67442;SDS011;54311;51.726;5.154;2023-07-31T01:53:36;28.65;;;9.55;;
67442;SDS011;54311;51.726;5.154;2023-07-31T01:56:02;27.60;;;10.48;;
67442;SDS011;54311;51.726;5.154;2023-07-31T01:58:27;29.50;;;10.15;;
67442;SDS011;54311;51.726;5.154;2023-07-31T02:00:52;25.75;;;10.07;;
67442;SDS011;54311;51.726;5.154;2023-07-31T02:03:18;29.38;;;9.98;;
67442;SDS011;54311;51.726;5.154;2023-07-31T02:05:43;26.67;;;10.15;;
67442;SDS011;54311;51.726;5.154;2023-07-31T02:08:12;27.25;;;10.43;;
67442;SDS011;54311;51.726;5.154;2023-07-31T02:10:38;23.65;;;9.85;;
67442;SDS011;54311;51.726;5.154;2023-07-31T02:13:03;27.15;;;10.65;;
67442;SDS011;54311;51.726;5.154;2023-07-31T02:15:29;31.85;;;10.30;;
67442;SDS011;54311;51.726;5.154;2023-07-31T02:17:55;28.00;;;10.93;;
67442;SDS011;54311;51.726;5.154;2023-07-31T02:20:20;24.83;;;10.00;;
67442;SDS011;54311;51.726;5.154;2023-07-31T02:22:45;24.42;;;9.35;;
67442;SDS011;54311;51.726;5.154;2023-07-31T02:25:11;29.95;;;10.77;;
67442;SDS011;54311;51.726;5.154;2023-07-31T02:27:36;21.80;;;9.27;;
67442;SDS011;54311;51.726;5.154;2023-07-31T02:30:02;24.15;;;9.30;;
67442;SDS011;54311;51.726;5.154;2023-07-31T02:32:27;22.63;;;9.10;;
67442;SDS011;54311;51.726;5.154;2023-07-31T02:34:52;28.88;;;9.43;;
67442;SDS011;54311;51.726;5.154;2023-07-31T02:37:18;27.40;;;9.23;;
67442;SDS011;54311;51.726;5.154;2023-07-31T02:39:43;27.33;;;10.43;;
67442;SDS011;54311;51.726;5.154;2023-07-31T02:42:08;27.80;;;10.18;;
67442;SDS011;54311;51.726;5.154;2023-07-31T02:44:34;24.52;;;9.35;;
67442;SDS011;54311;51.726;5.154;2023-07-31T02:46:59;29.50;;;10.40;;
67442;SDS011;54311;51.726;5.154;2023-07-31T02:49:24;22.20;;;9.55;;
67442;SDS011;54311;51.726;5.154;2023-07-31T02:51:50;22.98;;;9.38;;
67442;SDS011;54311;51.726;5.154;2023-07-31T02:54:15;21.25;;;9.82;;
67442;SDS011;54311;51.726;5.154;2023-07-31T02:56:40;26.13;;;10.57;;
67442;SDS011;54311;51.726;5.154;2023-07-31T02:59:06;21.23;;;9.65;;
67442;SDS011;54311;51.726;5.154;2023-07-31T03:01:31;31.55;;;10.20;;
67442;SDS011;54311;51.726;5.154;2023-07-31T03:03:56;19.88;;;9.73;;
67442;SDS011;54311;51.726;5.154;2023-07-31T03:06:22;22.42;;;9.18;;
67442;SDS011;54311;51.726;5.154;2023-07-31T03:08:47;24.92;;;9.95;;
67442;SDS011;54311;51.726;5.154;2023-07-31T03:11:12;26.08;;;9.35;;
67442;SDS011;54311;51.726;5.154;2023-07-31T03:13:38;29.17;;;9.48;;
67442;SDS011;54311;51.726;5.154;2023-07-31T03:16:03;24.33;;;8.95;;
67442;SDS011;54311;51.726;5.154;2023-07-31T03:18:29;27.50;;;10.35;;
67442;SDS011;54311;51.726;5.154;2023-07-31T03:20:54;22.08;;;9.75;;
67442;SDS011;54311;51.726;5.154;2023-07-31T03:23:19;23.55;;;9.30;;
67442;SDS011;54311;51.726;5.154;2023-07-31T03:28:26;24.85;;;10.35;;
67442;SDS011;54311;51.726;5.154;2023-07-31T03:30:51;24.50;;;9.70;;
67442;SDS011;54311;51.726;5.154;2023-07-31T03:33:17;21.85;;;9.52;;
67442;SDS011;54311;51.726;5.154;2023-07-31T03:35:42;25.08;;;10.40;;
67442;SDS011;54311;51.726;5.154;2023-07-31T03:38:08;23.92;;;9.15;;
67442;SDS011;54311;51.726;5.154;2023-07-31T03:40:33;28.30;;;10.18;;
67442;SDS011;54311;51.726;5.154;2023-07-31T03:42:59;19.52;;;9.00;;
67442;SDS011;54311;51.726;5.154;2023-07-31T03:45:24;29.70;;;10.07;;
67442;SDS011;54311;51.726;5.154;2023-07-31T03:47:49;24.88;;;9.23;;
67442;SDS011;54311;51.726;5.154;2023-07-31T03:50:15;24.55;;;10.10;;
67442;SDS011;54311;51.726;5.154;2023-07-31T03:52:41;25.55;;;9.48;;
67442;SDS011;54311;51.726;5.154;2023-07-31T03:55:06;27.90;;;9.80;;
67442;SDS011;54311;51.726;5.154;2023-07-31T03:57:32;22.23;;;9.80;;
67442;SDS011;54311;51.726;5.154;2023-07-31T03:59:58;26.45;;;8.85;;
67442;SDS011;54311;51.726;5.154;2023-07-31T04:02:24;24.10;;;9.38;;
67442;SDS011;54311;51.726;5.154;2023-07-31T04:04:49;22.95;;;9.18;;
67442;SDS011;54311;51.726;5.154;2023-07-31T04:07:15;16.73;;;8.57;;
67442;SDS011;54311;51.726;5.154;2023-07-31T04:09:40;24.63;;;9.60;;
67442;SDS011;54311;51.726;5.154;2023-07-31T04:12:05;23.38;;;9.60;;
67442;SDS011;54311;51.726;5.154;2023-07-31T04:14:31;22.25;;;9.02;;
67442;SDS011;54311;51.726;5.154;2023-07-31T04:16:56;19.55;;;8.63;;
67442;SDS011;54311;51.726;5.154;2023-07-31T04:19:22;23.55;;;9.30;;
67442;SDS011;54311;51.726;5.154;2023-07-31T04:21:47;22.40;;;9.13;;
67442;SDS011;54311;51.726;5.154;2023-07-31T04:24:12;22.10;;;9.32;;
67442;SDS011;54311;51.726;5.154;2023-07-31T04:26:38;21.33;;;9.57;;
67442;SDS011;54311;51.726;5.154;2023-07-31T04:29:03;22.13;;;8.48;;
67442;SDS011;54311;51.726;5.154;2023-07-31T04:31:28;21.35;;;8.75;;
67442;SDS011;54311;51.726;5.154;2023-07-31T04:33:54;19.73;;;9.38;;
67442;SDS011;54311;51.726;5.154;2023-07-31T04:36:19;23.23;;;9.55;;
67442;SDS011;54311;51.726;5.154;2023-07-31T04:38:45;23.98;;;8.75;;
67442;SDS011;54311;51.726;5.154;2023-07-31T04:41:10;22.70;;;9.02;;
67442;SDS011;54311;51.726;5.154;2023-07-31T04:43:35;20.70;;;9.65;;
67442;SDS011;54311;51.726;5.154;2023-07-31T04:46:03;19.98;;;9.30;;
67442;SDS011;54311;51.726;5.154;2023-07-31T04:48:29;18.63;;;9.10;;
67442;SDS011;54311;51.726;5.154;2023-07-31T04:50:54;19.83;;;8.95;;
67442;SDS011;54311;51.726;5.154;2023-07-31T04:53:20;14.75;;;8.48;;
67442;SDS011;54311;51.726;5.154;2023-07-31T04:55:45;20.73;;;10.05;;
67442;SDS011;54311;51.726;5.154;2023-07-31T04:58:10;25.13;;;9.68;;
67442;SDS011;54311;51.726;5.154;2023-07-31T05:00:36;20.40;;;8.95;;
67442;SDS011;54311;51.726;5.154;2023-07-31T05:03:01;19.20;;;9.70;;
67442;SDS011;54311;51.726;5.154;2023-07-31T05:05:26;23.52;;;10.05;;
67442;SDS011;54311;51.726;5.154;2023-07-31T05:07:52;18.83;;;9.07;;
67442;SDS011;54311;51.726;5.154;2023-07-31T05:10:17;18.35;;;8.45;;
67442;SDS011;54311;51.726;5.154;2023-07-31T05:12:42;18.88;;;9.00;;
67442;SDS011;54311;51.726;5.154;2023-07-31T05:15:08;22.83;;;9.02;;
67442;SDS011;54311;51.726;5.154;2023-07-31T05:17:34;21.90;;;9.55;;
67442;SDS011;54311;51.726;5.154;2023-07-31T05:19:59;21.83;;;9.23;;
67442;SDS011;54311;51.726;5.154;2023-07-31T05:22:24;21.38;;;9.57;;
67442;SDS011;54311;51.726;5.154;2023-07-31T05:24:50;23.20;;;9.05;;
67442;SDS011;54311;51.726;5.154;2023-07-31T05:27:15;23.45;;;8.75;;
67442;SDS011;54311;51.726;5.154;2023-07-31T05:29:43;24.25;;;9.40;;
67442;SDS011;54311;51.726;5.154;2023-07-31T05:32:09;21.98;;;9.52;;
67442;SDS011;54311;51.726;5.154;2023-07-31T05:34:34;16.73;;;8.98;;
67442;SDS011;54311;51.726;5.154;2023-07-31T05:36:59;21.50;;;8.82;;
67442;SDS011;54311;51.726;5.154;2023-07-31T05:39:25;20.95;;;9.73;;
67442;SDS011;54311;51.726;5.154;2023-07-31T05:41:50;21.95;;;9.27;;
67442;SDS011;54311;51.726;5.154;2023-07-31T05:44:15;19.75;;;8.57;;
67442;SDS011;54311;51.726;5.154;2023-07-31T05:46:41;20.60;;;8.82;;
67442;SDS011;54311;51.726;5.154;2023-07-31T05:49:06;16.45;;;8.50;;
67442;SDS011;54311;51.726;5.154;2023-07-31T05:51:32;12.82;;;8.52;;
67442;SDS011;54311;51.726;5.154;2023-07-31T05:53:57;16.98;;;8.35;;
67442;SDS011;54311;51.726;5.154;2023-07-31T05:56:22;15.48;;;7.93;;
67442;SDS011;54311;51.726;5.154;2023-07-31T05:58:48;12.00;;;8.02;;
67442;SDS011;54311;51.726;5.154;2023-07-31T06:01:15;11.98;;;7.57;;
67442;SDS011;54311;51.726;5.154;2023-07-31T06:03:41;10.00;;;7.07;;
67442;SDS011;54311;51.726;5.154;2023-07-31T06:06:07;11.43;;;6.95;;
67442;SDS011;54311;51.726;5.154;2023-07-31T06:08:32;10.30;;;7.00;;
67442;SDS011;54311;51.726;5.154;2023-07-31T06:10:58;11.80;;;7.07;;
67442;SDS011;54311;51.726;5.154;2023-07-31T06:13:23;10.73;;;6.50;;
67442;SDS011;54311;51.726;5.154;2023-07-31T06:15:48;7.47;;;6.13;;
67442;SDS011;54311;51.726;5.154;2023-07-31T06:18:14;7.30;;;5.90;;
67442;SDS011;54311;51.726;5.154;2023-07-31T06:20:40;6.28;;;5.55;;
67442;SDS011;54311;51.726;5.154;2023-07-31T06:23:06;7.72;;;5.35;;
67442;SDS011;54311;51.726;5.154;2023-07-31T06:25:31;5.72;;;4.85;;
67442;SDS011;54311;51.726;5.154;2023-07-31T06:27:56;7.43;;;5.38;;
67442;SDS011;54311;51.726;5.154;2023-07-31T06:30:22;8.07;;;5.50;;
67442;SDS011;54311;51.726;5.154;2023-07-31T06:32:47;7.30;;;5.82;;
67442;SDS011;54311;51.726;5.154;2023-07-31T06:35:12;9.02;;;6.55;;
67442;SDS011;54311;51.726;5.154;2023-07-31T06:37:38;12.00;;;6.45;;
67442;SDS011;54311;51.726;5.154;2023-07-31T06:40:05;7.80;;;7.10;;
67442;SDS011;54311;51.726;5.154;2023-07-31T06:42:33;7.82;;;6.82;;
67442;SDS011;54311;51.726;5.154;2023-07-31T06:44:59;7.18;;;6.45;;
67442;SDS011;54311;51.726;5.154;2023-07-31T06:47:25;8.75;;;7.47;;
67442;SDS011;54311;51.726;5.154;2023-07-31T06:49:51;9.75;;;7.25;;
67442;SDS011;54311;51.726;5.154;2023-07-31T06:52:16;7.55;;;6.93;;
67442;SDS011;54311;51.726;5.154;2023-07-31T06:54:42;7.65;;;6.95;;
67442;SDS011;54311;51.726;5.154;2023-07-31T06:57:07;8.10;;;7.22;;
67442;SDS011;54311;51.726;5.154;2023-07-31T06:59:33;7.78;;;6.95;;
67442;SDS011;54311;51.726;5.154;2023-07-31T07:01:58;6.82;;;6.20;;
67442;SDS011;54311;51.726;5.154;2023-07-31T07:04:23;8.20;;;7.20;;
67442;SDS011;54311;51.726;5.154;2023-07-31T07:06:49;8.15;;;7.05;;
67442;SDS011;54311;51.726;5.154;2023-07-31T07:09:14;7.45;;;6.72;;
67442;SDS011;54311;51.726;5.154;2023-07-31T07:11:39;7.32;;;6.43;;
67442;SDS011;54311;51.726;5.154;2023-07-31T07:14:05;6.10;;;5.57;;
67442;SDS011;54311;51.726;5.154;2023-07-31T07:16:30;6.30;;;5.78;;
67442;SDS011;54311;51.726;5.154;2023-07-31T07:18:56;6.38;;;5.90;;
67442;SDS011;54311;51.726;5.154;2023-07-31T07:21:21;5.80;;;5.30;;
67442;SDS011;54311;51.726;5.154;2023-07-31T07:23:46;6.43;;;5.72;;
67442;SDS011;54311;51.726;5.154;2023-07-31T07:26:12;6.03;;;5.55;;
67442;SDS011;54311;51.726;5.154;2023-07-31T07:28:37;5.75;;;5.38;;
67442;SDS011;54311;51.726;5.154;2023-07-31T07:31:03;7.93;;;5.72;;
67442;SDS011;54311;51.726;5.154;2023-07-31T07:33:28;6.25;;;5.70;;
67442;SDS011;54311;51.726;5.154;2023-07-31T07:35:54;6.03;;;5.47;;
67442;SDS011;54311;51.726;5.154;2023-07-31T07:38:19;6.00;;;5.70;;
67442;SDS011;54311;51.726;5.154;2023-07-31T07:40:44;5.97;;;5.47;;
67442;SDS011;54311;51.726;5.154;2023-07-31T07:43:11;6.32;;;5.75;;
67442;SDS011;54311;51.726;5.154;2023-07-31T07:45:39;7.00;;;6.45;;
67442;SDS011;54311;51.726;5.154;2023-07-31T07:48:05;6.78;;;6.22;;
67442;SDS011;54311;51.726;5.154;2023-07-31T07:50:30;6.78;;;6.25;;
67442;SDS011;54311;51.726;5.154;2023-07-31T07:52:56;6.50;;;6.03;;
67442;SDS011;54311;51.726;5.154;2023-07-31T07:55:21;7.70;;;7.10;;
67442;SDS011;54311;51.726;5.154;2023-07-31T07:57:47;7.97;;;7.28;;
67442;SDS011;54311;51.726;5.154;2023-07-31T08:00:15;8.10;;;7.32;;
67442;SDS011;54311;51.726;5.154;2023-07-31T08:02:42;8.25;;;7.30;;
67442;SDS011;54311;51.726;5.154;2023-07-31T08:05:07;10.10;;;7.95;;
67442;SDS011;54311;51.726;5.154;2023-07-31T08:07:33;8.27;;;7.68;;
67442;SDS011;54311;51.726;5.154;2023-07-31T08:09:58;8.80;;;8.10;;
67442;SDS011;54311;51.726;5.154;2023-07-31T08:12:23;8.35;;;7.63;;
67442;SDS011;54311;51.726;5.154;2023-07-31T08:14:49;8.95;;;8.13;;
67442;SDS011;54311;51.726;5.154;2023-07-31T08:17:15;9.07;;;8.10;;
67442;SDS011;54311;51.726;5.154;2023-07-31T08:19:40;10.95;;;8.48;;
67442;SDS011;54311;51.726;5.154;2023-07-31T08:22:05;14.18;;;9.07;;
67442;SDS011;54311;51.726;5.154;2023-07-31T08:24:31;9.63;;;8.73;;
67442;SDS011;54311;51.726;5.154;2023-07-31T08:26:56;9.38;;;8.65;;
67442;SDS011;54311;51.726;5.154;2023-07-31T08:29:22;9.90;;;8.65;;
67442;SDS011;54311;51.726;5.154;2023-07-31T08:31:47;10.52;;;9.50;;
67442;SDS011;54311;51.726;5.154;2023-07-31T08:34:13;11.70;;;9.77;;
67442;SDS011;54311;51.726;5.154;2023-07-31T08:36:38;10.50;;;9.50;;
67442;SDS011;54311;51.726;5.154;2023-07-31T08:39:03;11.25;;;10.15;;
67442;SDS011;54311;51.726;5.154;2023-07-31T08:41:29;10.90;;;9.80;;
67442;SDS011;54311;51.726;5.154;2023-07-31T08:43:54;11.25;;;10.20;;
67442;SDS011;54311;51.726;5.154;2023-07-31T08:46:20;11.70;;;10.35;;
67442;SDS011;54311;51.726;5.154;2023-07-31T08:48:46;12.90;;;10.95;;
67442;SDS011;54311;51.726;5.154;2023-07-31T08:51:14;15.45;;;11.43;;
67442;SDS011;54311;51.726;5.154;2023-07-31T08:53:39;12.80;;;11.60;;
67442;SDS011;54311;51.726;5.154;2023-07-31T08:56:05;13.73;;;11.27;;
67442;SDS011;54311;51.726;5.154;2023-07-31T08:58:31;13.75;;;11.13;;
67442;SDS011;54311;51.726;5.154;2023-07-31T09:00:58;14.02;;;12.57;;
67442;SDS011;54311;51.726;5.154;2023-07-31T09:03:26;13.93;;;12.63;;
67442;SDS011;54311;51.726;5.154;2023-07-31T09:05:51;14.02;;;12.55;;
67442;SDS011;54311;51.726;5.154;2023-07-31T09:08:18;14.77;;;13.32;;
67442;SDS011;54311;51.726;5.154;2023-07-31T09:10:45;14.02;;;12.57;;
67442;SDS011;54311;51.726;5.154;2023-07-31T09:13:11;13.95;;;12.13;;
67442;SDS011;54311;51.726;5.154;2023-07-31T09:15:37;12.88;;;11.60;;
67442;SDS011;54311;51.726;5.154;2023-07-31T09:18:05;13.30;;;11.68;;
67442;SDS011;54311;51.726;5.154;2023-07-31T09:20:31;13.73;;;11.82;;
67442;SDS011;54311;51.726;5.154;2023-07-31T09:23:01;16.63;;;11.02;;
67442;SDS011;54311;51.726;5.154;2023-07-31T09:25:31;12.43;;;11.13;;
67442;SDS011;54311;51.726;5.154;2023-07-31T09:30:24;15.93;;;11.43;;
67442;SDS011;54311;51.726;5.154;2023-07-31T09:32:50;12.23;;;11.00;;
67442;SDS011;54311;51.726;5.154;2023-07-31T09:35:20;12.93;;;10.57;;
67442;SDS011;54311;51.726;5.154;2023-07-31T09:37:59;11.13;;;10.00;;
67442;SDS011;54311;51.726;5.154;2023-07-31T09:42:52;14.80;;;9.82;;
67442;SDS011;54311;51.726;5.154;2023-07-31T09:45:18;10.70;;;8.65;;
67442;SDS011;54311;51.726;5.154;2023-07-31T09:47:47;10.68;;;9.18;;
67442;SDS011;54311;51.726;5.154;2023-07-31T09:50:15;12.13;;;9.18;;
67442;SDS011;54311;51.726;5.154;2023-07-31T09:52:41;12.57;;;9.25;;
67442;SDS011;54311;51.726;5.154;2023-07-31T09:55:07;13.07;;;8.65;;
67442;SDS011;54311;51.726;5.154;2023-07-31T09:57:33;10.38;;;8.18;;
67442;SDS011;54311;51.726;5.154;2023-07-31T09:59:59;9.80;;;8.23;;
67442;SDS011;54311;51.726;5.154;2023-07-31T10:02:24;8.23;;;7.43;;
67442;SDS011;54311;51.726;5.154;2023-07-31T10:04:51;9.88;;;7.55;;
67442;SDS011;54311;51.726;5.154;2023-07-31T10:07:19;9.82;;;6.72;;
67442;SDS011;54311;51.726;5.154;2023-07-31T10:09:45;10.02;;;7.32;;
67442;SDS011;54311;51.726;5.154;2023-07-31T10:12:11;7.07;;;6.38;;
67442;SDS011;54311;51.726;5.154;2023-07-31T10:14:37;7.68;;;6.88;;
67442;SDS011;54311;51.726;5.154;2023-07-31T10:17:03;7.03;;;6.35;;
67442;SDS011;54311;51.726;5.154;2023-07-31T10:19:30;9.20;;;6.78;;
67442;SDS011;54311;51.726;5.154;2023-07-31T10:21:55;8.98;;;7.90;;
67442;SDS011;54311;51.726;5.154;2023-07-31T10:24:23;7.57;;;6.88;;
67442;SDS011;54311;51.726;5.154;2023-07-31T10:26:49;8.60;;;5.93;;
67442;SDS011;54311;51.726;5.154;2023-07-31T10:29:16;6.63;;;6.13;;
67442;SDS011;54311;51.726;5.154;2023-07-31T10:31:42;6.35;;;5.85;;
67442;SDS011;54311;51.726;5.154;2023-07-31T10:34:08;8.82;;;5.68;;
67442;SDS011;54311;51.726;5.154;2023-07-31T10:36:33;5.70;;;5.30;;
67442;SDS011;54311;51.726;5.154;2023-07-31T10:38:59;5.85;;;5.35;;
67442;SDS011;54311;51.726;5.154;2023-07-31T10:41:28;6.60;;;5.32;;
67442;SDS011;54311;51.726;5.154;2023-07-31T10:43:57;6.75;;;4.90;;
67442;SDS011;54311;51.726;5.154;2023-07-31T10:46:23;5.80;;;5.30;;
67442;SDS011;54311;51.726;5.154;2023-07-31T10:48:49;5.68;;;5.20;;
67442;SDS011;54311;51.726;5.154;2023-07-31T10:53:47;6.40;;;5.10;;
67442;SDS011;54311;51.726;5.154;2023-07-31T10:56:13;6.68;;;5.50;;
67442;SDS011;54311;51.726;5.154;2023-07-31T10:58:43;5.43;;;5.03;;
67442;SDS011;54311;51.726;5.154;2023-07-31T11:01:09;5.95;;;5.22;;
67442;SDS011;54311;51.726;5.154;2023-07-31T11:03:42;4.82;;;4.47;;
67442;SDS011;54311;51.726;5.154;2023-07-31T11:06:12;7.80;;;5.15;;
67442;SDS011;54311;51.726;5.154;2023-07-31T11:08:41;5.28;;;4.80;;
67442;SDS011;54311;51.726;5.154;2023-07-31T11:11:09;6.40;;;4.90;;
67442;SDS011;54311;51.726;5.154;2023-07-31T11:13:39;5.30;;;4.68;;
67442;SDS011;54311;51.726;5.154;2023-07-31T11:16:17;5.70;;;5.30;;
67442;SDS011;54311;51.726;5.154;2023-07-31T11:18:45;5.43;;;5.03;;
67442;SDS011;54311;51.726;5.154;2023-07-31T11:21:13;6.68;;;5.72;;
67442;SDS011;54311;51.726;5.154;2023-07-31T11:23:45;9.57;;;6.10;;
67442;SDS011;54311;51.726;5.154;2023-07-31T11:26:11;5.40;;;4.95;;
67442;SDS011;54311;51.726;5.154;2023-07-31T11:28:36;9.63;;;5.28;;
67442;SDS011;54311;51.726;5.154;2023-07-31T11:31:03;6.60;;;5.63;;
67442;SDS011;54311;51.726;5.154;2023-07-31T11:33:29;7.25;;;5.90;;
67442;SDS011;54311;51.726;5.154;2023-07-31T11:35:54;7.13;;;6.50;;
67442;SDS011;54311;51.726;5.154;2023-07-31T11:38:23;7.50;;;6.55;;
67442;SDS011;54311;51.726;5.154;2023-07-31T11:40:49;7.45;;;6.75;;
67442;SDS011;54311;51.726;5.154;2023-07-31T11:43:15;7.10;;;6.45;;
67442;SDS011;54311;51.726;5.154;2023-07-31T11:45:44;7.50;;;6.90;;
67442;SDS011;54311;51.726;5.154;2023-07-31T11:48:22;8.02;;;7.10;;
67442;SDS011;54311;51.726;5.154;2023-07-31T11:50:49;7.53;;;6.78;;
67442;SDS011;54311;51.726;5.154;2023-07-31T11:53:16;8.45;;;7.65;;
67442;SDS011;54311;51.726;5.154;2023-07-31T11:55:43;8.70;;;7.82;;
67442;SDS011;54311;51.726;5.154;2023-07-31T11:58:08;7.63;;;7.00;;
67442;SDS011;54311;51.726;5.154;2023-07-31T12:00:34;8.68;;;7.53;;
67442;SDS011;54311;51.726;5.154;2023-07-31T12:03:00;10.18;;;7.97;;
67442;SDS011;54311;51.726;5.154;2023-07-31T12:05:25;8.65;;;7.10;;
67442;SDS011;54311;51.726;5.154;2023-07-31T12:07:51;7.65;;;6.85;;
67442;SDS011;54311;51.726;5.154;2023-07-31T12:10:24;9.55;;;7.30;;
67442;SDS011;54311;51.726;5.154;2023-07-31T12:13:01;7.43;;;6.72;;
67442;SDS011;54311;51.726;5.154;2023-07-31T12:17:59;9.85;;;7.57;;
67442;SDS011;54311;51.726;5.154;2023-07-31T12:20:26;7.93;;;7.40;;
67442;SDS011;54311;51.726;5.154;2023-07-31T12:22:51;8.20;;;7.38;;
67442;SDS011;54311;51.726;5.154;2023-07-31T12:25:16;9.95;;;8.00;;
67442;SDS011;54311;51.726;5.154;2023-07-31T12:27:45;8.68;;;7.75;;
67442;SDS011;54311;51.726;5.154;2023-07-31T12:30:29;11.13;;;8.88;;
67442;SDS011;54311;51.726;5.154;2023-07-31T12:32:55;12.13;;;8.20;;
67442;SDS011;54311;51.726;5.154;2023-07-31T12:35:20;10.65;;;9.70;;
67442;SDS011;54311;51.726;5.154;2023-07-31T12:37:46;10.25;;;9.25;;
67442;SDS011;54311;51.726;5.154;2023-07-31T12:40:11;11.27;;;9.85;;
67442;SDS011;54311;51.726;5.154;2023-07-31T12:42:37;10.32;;;9.32;;
67442;SDS011;54311;51.726;5.154;2023-07-31T12:45:03;9.75;;;8.77;;
67442;SDS011;54311;51.726;5.154;2023-07-31T12:47:29;9.27;;;8.60;;
67442;SDS011;54311;51.726;5.154;2023-07-31T12:49:55;12.65;;;9.55;;
67442;SDS011;54311;51.726;5.154;2023-07-31T12:52:20;11.45;;;9.05;;
67442;SDS011;54311;51.726;5.154;2023-07-31T12:54:46;9.95;;;9.18;;
67442;SDS011;54311;51.726;5.154;2023-07-31T12:57:11;10.68;;;9.73;;
67442;SDS011;54311;51.726;5.154;2023-07-31T12:59:36;11.82;;;9.90;;
67442;SDS011;54311;51.726;5.154;2023-07-31T13:02:02;9.88;;;8.93;;
67442;SDS011;54311;51.726;5.154;2023-07-31T13:04:27;11.20;;;9.55;;
67442;SDS011;54311;51.726;5.154;2023-07-31T13:06:54;11.48;;;9.77;;
67442;SDS011;54311;51.726;5.154;2023-07-31T13:09:19;11.48;;;10.30;;
67442;SDS011;54311;51.726;5.154;2023-07-31T13:11:45;15.82;;;11.00;;
67442;SDS011;54311;51.726;5.154;2023-07-31T13:14:10;13.18;;;11.18;;
67442;SDS011;54311;51.726;5.154;2023-07-31T13:16:36;13.02;;;10.43;;
67442;SDS011;54311;51.726;5.154;2023-07-31T13:19:01;13.20;;;9.27;;
67442;SDS011;54311;51.726;5.154;2023-07-31T13:21:26;10.70;;;9.43;;
67442;SDS011;54311;51.726;5.154;2023-07-31T13:23:52;14.98;;;9.98;;
67442;SDS011;54311;51.726;5.154;2023-07-31T13:26:17;13.25;;;9.48;;
67442;SDS011;54311;51.726;5.154;2023-07-31T13:28:42;11.23;;;8.85;;
67442;SDS011;54311;51.726;5.154;2023-07-31T13:31:08;10.48;;;9.48;;
67442;SDS011;54311;51.726;5.154;2023-07-31T13:33:33;15.02;;;8.70;;
67442;SDS011;54311;51.726;5.154;2023-07-31T13:35:58;10.70;;;8.70;;
67442;SDS011;54311;51.726;5.154;2023-07-31T13:38:24;9.98;;;8.95;;
67442;SDS011;54311;51.726;5.154;2023-07-31T13:40:49;10.10;;;8.48;;
67442;SDS011;54311;51.726;5.154;2023-07-31T13:43:15;18.92;;;9.20;;
67442;SDS011;54311;51.726;5.154;2023-07-31T13:45:40;19.42;;;9.38;;
67442;SDS011;54311;51.726;5.154;2023-07-31T13:48:05;9.40;;;8.50;;
67442;SDS011;54311;51.726;5.154;2023-07-31T13:50:31;14.07;;;9.63;;
67442;SDS011;54311;51.726;5.154;2023-07-31T13:52:56;12.13;;;8.95;;
67442;SDS011;54311;51.726;5.154;2023-07-31T13:55:21;11.15;;;8.98;;
67442;SDS011;54311;51.726;5.154;2023-07-31T13:57:47;13.85;;;9.57;;
67442;SDS011;54311;51.726;5.154;2023-07-31T14:00:12;11.90;;;9.45;;
67442;SDS011;54311;51.726;5.154;2023-07-31T14:02:38;14.82;;;10.27;;
67442;SDS011;54311;51.726;5.154;2023-07-31T14:05:04;12.57;;;9.32;;
67442;SDS011;54311;51.726;5.154;2023-07-31T14:07:31;11.18;;;9.95;;
67442;SDS011;54311;51.726;5.154;2023-07-31T14:09:57;13.15;;;9.23;;
67442;SDS011;54311;51.726;5.154;2023-07-31T14:12:22;13.60;;;10.15;;
67442;SDS011;54311;51.726;5.154;2023-07-31T14:14:47;11.65;;;9.75;;
67442;SDS011;54311;51.726;5.154;2023-07-31T14:17:13;10.68;;;9.13;;
67442;SDS011;54311;51.726;5.154;2023-07-31T14:19:38;13.00;;;10.18;;
67442;SDS011;54311;51.726;5.154;2023-07-31T14:22:04;16.52;;;10.13;;
67442;SDS011;54311;51.726;5.154;2023-07-31T14:24:29;11.57;;;9.13;;
67442;SDS011;54311;51.726;5.154;2023-07-31T14:26:55;10.55;;;9.32;;
67442;SDS011;54311;51.726;5.154;2023-07-31T14:29:20;12.07;;;9.20;;
67442;SDS011;54311;51.726;5.154;2023-07-31T14:31:46;11.13;;;9.57;;
67442;SDS011;54311;51.726;5.154;2023-07-31T14:34:11;12.98;;;9.13;;
67442;SDS011;54311;51.726;5.154;2023-07-31T14:36:36;14.45;;;10.15;;
67442;SDS011;54311;51.726;5.154;2023-07-31T14:39:02;11.50;;;10.20;;
67442;SDS011;54311;51.726;5.154;2023-07-31T14:41:27;14.13;;;10.38;;
67442;SDS011;54311;51.726;5.154;2023-07-31T14:43:52;12.25;;;9.52;;
67442;SDS011;54311;51.726;5.154;2023-07-31T14:46:18;10.98;;;9.73;;